Time,TemperatureF,DewpointF,PressureIn,WindDirection,WindDirectionDegrees,WindSpeedMPH,WindSpeedGustMPH,Humidity,HourlyPrecipIn,Conditions,Clouds,dailyrainin,SolarRadiationWatts/m^2,SoftwareType,DateUTC
2013-05-31 00:02:00,65.0,59.0,-100.00,NNW,334,1.0,2.0,81,0.00,,,0.00,0.000000,,2013-05-31 04:02:00,
2013-05-31 00:23:00,64.0,59.0,-100.00,NE,43,1.0,2.0,85,0.00,,,0.00,0.000000,,2013-05-31 04:23:00,
2013-05-31 00:33:00,64.0,59.0,-100.00,NE,43,1.0,2.0,85,0.00,,,0.00,0.000000,,2013-05-31 04:33:00,
2013-05-31 00:43:00,64.0,59.0,-100.00,NE,43,1.0,2.0,85,0.00,,,0.00,0.000000,,2013-05-31 04:43:00,
2013-05-31 00:53:00,64.0,59.0,-100.00,NE,43,1.0,2.0,85,0.00,,,0.00,0.000000,,2013-05-31 04:53:00,
2013-05-31 01:02:00,64.0,59.0,-100.00,NE,43,1.0,2.0,85,0.00,,,0.00,0.000000,,2013-05-31 05:02:00,
2013-05-31 01:22:00,64.0,59.0,-100.00,North,11,1.0,4.0,84,0.00,,,0.00,0.000000,,2013-05-31 05:22:00,
2013-05-31 01:32:00,64.0,59.0,-100.00,North,11,1.0,4.0,84,0.00,,,0.00,0.000000,,2013-05-31 05:32:00,
2013-05-31 01:42:00,64.0,59.0,-100.00,North,11,1.0,4.0,84,0.00,,,0.00,0.000000,,2013-05-31 05:42:00,
2013-05-31 01:52:00,64.0,59.0,-100.00,North,11,1.0,4.0,84,0.00,,,0.00,0.000000,,2013-05-31 05:52:00,
2013-05-31 02:02:00,64.0,59.0,-100.00,North,11,1.0,4.0,84,0.00,,,0.00,0.000000,,2013-05-31 06:02:00,
2013-05-31 02:22:00,61.0,58.0,-100.00,SW,217,0.0,3.0,90,0.00,,,0.00,0.000000,,2013-05-31 06:22:00,
2013-05-31 02:32:00,61.0,58.0,-100.00,SW,217,0.0,3.0,90,0.00,,,0.00,0.000000,,2013-05-31 06:32:00,
2013-05-31 02:42:00,61.0,58.0,-100.00,SW,217,0.0,3.0,90,0.00,,,0.00,0.000000,,2013-05-31 06:42:00,
2013-05-31 02:52:00,61.0,58.0,-100.00,SW,217,0.0,3.0,90,0.00,,,0.00,0.000000,,2013-05-31 06:52:00,
2013-05-31 03:02:00,61.0,58.0,-100.00,SW,217,0.0,3.0,90,0.00,,,0.00,0.000000,,2013-05-31 07:02:00,
2013-05-31 03:21:00,61.0,59.0,-100.00,West,277,0.0,0.0,94,0.00,,,0.00,0.000000,,2013-05-31 07:21:00,
2013-05-31 03:32:00,61.0,59.0,-100.00,West,277,0.0,0.0,94,0.00,,,0.00,0.000000,,2013-05-31 07:32:00,
2013-05-31 03:42:00,61.0,59.0,-100.00,West,277,0.0,0.0,94,0.00,,,0.00,0.000000,,2013-05-31 07:42:00,
2013-05-31 03:53:00,61.0,59.0,-100.00,West,277,0.0,0.0,94,0.00,,,0.00,0.000000,,2013-05-31 07:53:00,
2013-05-31 04:02:00,61.0,59.0,-100.00,West,277,0.0,0.0,94,0.00,,,0.00,0.000000,,2013-05-31 08:02:00,
2013-05-31 04:22:00,61.0,60.0,-100.00,NNW,336,0.0,1.0,95,0.00,,,0.00,0.000000,,2013-05-31 08:22:00,
2013-05-31 04:32:00,61.0,60.0,-100.00,NNW,336,0.0,1.0,95,0.00,,,0.00,0.000000,,2013-05-31 08:32:00,
2013-05-31 04:42:00,61.0,60.0,-100.00,NNW,336,0.0,1.0,95,0.00,,,0.00,0.000000,,2013-05-31 08:42:00,
2013-05-31 04:52:00,61.0,60.0,-100.00,NNW,336,0.0,1.0,95,0.00,,,0.00,0.000000,,2013-05-31 08:52:00,
2013-05-31 05:01:00,61.0,60.0,-100.00,NNW,336,0.0,1.0,95,0.00,,,0.00,0.000000,,2013-05-31 09:01:00,
2013-05-31 05:21:00,61.0,59.0,-100.00,North,357,1.0,3.0,93,0.00,,,0.00,0.000000,,2013-05-31 09:21:00,
2013-05-31 05:32:00,61.0,59.0,-100.00,North,357,1.0,3.0,93,0.00,,,0.00,0.000000,,2013-05-31 09:32:00,
2013-05-31 05:43:00,61.0,59.0,-100.00,North,357,1.0,3.0,93,0.00,,,0.00,0.000000,,2013-05-31 09:43:00,
2013-05-31 05:53:00,61.0,59.0,-100.00,North,357,1.0,3.0,93,0.00,,,0.00,0.000000,,2013-05-31 09:53:00,
2013-05-31 06:02:00,61.0,59.0,-100.00,North,357,1.0,3.0,93,0.00,,,0.00,0.000000,,2013-05-31 10:02:00,
2013-05-31 06:23:00,60.0,59.0,-100.00,North,352,2.0,3.0,95,0.00,,,0.00,0.000000,,2013-05-31 10:23:00,
2013-05-31 06:33:00,60.0,59.0,-100.00,North,352,2.0,3.0,95,0.00,,,0.00,0.000000,,2013-05-31 10:33:00,
2013-05-31 06:42:00,60.0,59.0,-100.00,North,352,2.0,3.0,95,0.00,,,0.00,0.000000,,2013-05-31 10:42:00,
2013-05-31 06:52:00,60.0,59.0,-100.00,North,352,2.0,3.0,95,0.00,,,0.00,0.000000,,2013-05-31 10:52:00,
2013-05-31 07:02:00,60.0,59.0,-100.00,North,352,2.0,3.0,95,0.00,,,0.00,0.000000,,2013-05-31 11:02:00,
2013-05-31 07:22:00,61.0,60.0,-100.00,NNE,17,1.0,3.0,96,0.00,,,0.00,16.000000,,2013-05-31 11:22:00,
2013-05-31 07:32:00,61.0,60.0,-100.00,NNE,17,1.0,3.0,96,0.00,,,0.00,16.000000,,2013-05-31 11:32:00,
2013-05-31 07:42:00,61.0,60.0,-100.00,NNE,17,1.0,3.0,96,0.00,,,0.00,16.000000,,2013-05-31 11:42:00,
2013-05-31 07:52:00,61.0,60.0,-100.00,NNE,17,1.0,3.0,96,0.00,,,0.00,16.000000,,2013-05-31 11:52:00,
2013-05-31 08:01:00,61.0,60.0,-100.00,NNE,17,1.0,3.0,96,0.00,,,0.00,16.000000,,2013-05-31 12:01:00,
2013-05-31 08:22:00,66.0,64.0,-100.00,SW,221,3.0,4.0,93,0.00,,,0.00,47.000000,,2013-05-31 12:22:00,
2013-05-31 08:32:00,66.0,64.0,-100.00,SW,221,3.0,4.0,93,0.00,,,0.00,47.000000,,2013-05-31 12:32:00,
2013-05-31 08:42:00,66.0,64.0,-100.00,SW,221,3.0,4.0,93,0.00,,,0.00,47.000000,,2013-05-31 12:42:00,
2013-05-31 08:52:00,66.0,64.0,-100.00,SW,221,3.0,4.0,93,0.00,,,0.00,47.000000,,2013-05-31 12:52:00,
2013-05-31 09:01:00,66.0,64.0,-100.00,SW,221,3.0,4.0,93,0.00,,,0.00,47.000000,,2013-05-31 13:01:00,
2013-05-31 09:21:00,70.0,66.0,-100.00,SSW,212,5.0,10.0,87,0.00,,,0.00,83.000000,,2013-05-31 13:21:00,
2013-05-31 09:32:00,70.0,66.0,-100.00,SSW,212,5.0,10.0,87,0.00,,,0.00,83.000000,,2013-05-31 13:32:00,
2013-05-31 09:42:00,70.0,66.0,-100.00,SSW,212,5.0,10.0,87,0.00,,,0.00,83.000000,,2013-05-31 13:42:00,
2013-05-31 09:52:00,70.0,66.0,-100.00,SSW,212,5.0,10.0,87,0.00,,,0.00,83.000000,,2013-05-31 13:52:00,
2013-05-31 10:02:00,70.0,66.0,-100.00,SSW,212,5.0,10.0,87,0.00,,,0.00,83.000000,,2013-05-31 14:02:00,
2013-05-31 10:22:00,75.0,67.0,-100.00,SW,227,6.0,10.0,77,0.00,,,0.00,581.000000,,2013-05-31 14:22:00,
2013-05-31 10:32:00,75.0,67.0,-100.00,SW,227,6.0,10.0,77,0.00,,,0.00,581.000000,,2013-05-31 14:32:00,
2013-05-31 10:42:00,75.0,67.0,-100.00,SW,227,6.0,10.0,77,0.00,,,0.00,581.000000,,2013-05-31 14:42:00,
2013-05-31 10:52:00,75.0,67.0,-100.00,SW,227,6.0,10.0,77,0.00,,,0.00,581.000000,,2013-05-31 14:52:00,
2013-05-31 11:01:00,75.0,67.0,-100.00,SW,227,6.0,10.0,77,0.00,,,0.00,581.000000,,2013-05-31 15:01:00,
2013-05-31 11:21:00,77.0,65.0,-100.00,SW,230,8.0,12.0,67,0.00,,,0.00,804.000000,,2013-05-31 15:21:00,
2013-05-31 11:33:00,77.0,65.0,-100.00,SW,230,8.0,12.0,67,0.00,,,0.00,804.000000,,2013-05-31 15:33:00,
2013-05-31 11:43:00,77.0,65.0,-100.00,SW,230,8.0,12.0,67,0.00,,,0.00,804.000000,,2013-05-31 15:43:00,
2013-05-31 11:53:00,77.0,65.0,-100.00,SW,230,8.0,12.0,67,0.00,,,0.00,804.000000,,2013-05-31 15:53:00,
2013-05-31 12:03:00,77.0,65.0,-100.00,SW,230,8.0,12.0,67,0.00,,,0.00,804.000000,,2013-05-31 16:03:00,
2013-05-31 12:22:00,79.0,66.0,-100.00,SSW,200,7.0,12.0,64,0.00,,,0.00,819.000000,,2013-05-31 16:22:00,
2013-05-31 12:33:00,79.0,66.0,-100.00,SSW,200,7.0,12.0,64,0.00,,,0.00,819.000000,,2013-05-31 16:33:00,
2013-05-31 12:42:00,79.0,66.0,-100.00,SSW,200,7.0,12.0,64,0.00,,,0.00,819.000000,,2013-05-31 16:42:00,
2013-05-31 12:53:00,79.0,66.0,-100.00,SSW,200,7.0,12.0,64,0.00,,,0.00,819.000000,,2013-05-31 16:53:00,
2013-05-31 13:02:00,79.0,66.0,-100.00,SSW,200,7.0,12.0,64,0.00,,,0.00,819.000000,,2013-05-31 17:02:00,
2013-05-31 13:22:00,80.0,63.0,-100.00,SSW,200,7.0,14.0,57,0.00,,,0.00,902.000000,,2013-05-31 17:22:00,
2013-05-31 13:32:00,80.0,63.0,-100.00,SSW,200,7.0,14.0,57,0.00,,,0.00,902.000000,,2013-05-31 17:32:00,
2013-05-31 13:42:00,80.0,63.0,-100.00,SSW,200,7.0,14.0,57,0.00,,,0.00,902.000000,,2013-05-31 17:42:00,
2013-05-31 13:52:00,80.0,63.0,-100.00,SSW,200,7.0,14.0,57,0.00,,,0.00,902.000000,,2013-05-31 17:52:00,
2013-05-31 14:02:00,80.0,63.0,-100.00,SSW,200,7.0,14.0,57,0.00,,,0.00,902.000000,,2013-05-31 18:02:00,
2013-05-31 14:22:00,81.0,65.0,-100.00,SW,218,5.0,13.0,59,0.00,,,0.00,575.000000,,2013-05-31 18:22:00,
2013-05-31 14:32:00,81.0,65.0,-100.00,SW,218,5.0,13.0,59,0.00,,,0.00,575.000000,,2013-05-31 18:32:00,
2013-05-31 14:42:00,81.0,65.0,-100.00,SW,218,5.0,13.0,59,0.00,,,0.00,575.000000,,2013-05-31 18:42:00,
2013-05-31 14:52:00,81.0,65.0,-100.00,SW,218,5.0,13.0,59,0.00,,,0.00,575.000000,,2013-05-31 18:52:00,
2013-05-31 15:02:00,81.0,65.0,-100.00,SW,218,5.0,13.0,59,0.00,,,0.00,575.000000,,2013-05-31 19:02:00,
2013-05-31 15:22:00,81.0,62.0,-100.00,South,178,7.0,12.0,53,0.00,,,0.00,742.000000,,2013-05-31 19:22:00,
2013-05-31 15:32:00,81.0,62.0,-100.00,South,178,7.0,12.0,53,0.00,,,0.00,742.000000,,2013-05-31 19:32:00,
2013-05-31 15:42:00,81.0,62.0,-100.00,South,178,7.0,12.0,53,0.00,,,0.00,742.000000,,2013-05-31 19:42:00,
2013-05-31 15:52:00,81.0,62.0,-100.00,South,178,7.0,12.0,53,0.00,,,0.00,742.000000,,2013-05-31 19:52:00,
2013-05-31 16:02:00,81.0,62.0,-100.00,South,178,7.0,12.0,53,0.00,,,0.00,742.000000,,2013-05-31 20:02:00,
2013-05-31 16:22:00,83.0,63.0,-100.00,SW,214,8.0,14.0,51,0.00,,,0.00,782.000000,,2013-05-31 20:22:00,
2013-05-31 16:32:00,83.0,63.0,-100.00,SW,214,8.0,14.0,51,0.00,,,0.00,782.000000,,2013-05-31 20:32:00,
2013-05-31 16:42:00,83.0,63.0,-100.00,SW,214,8.0,14.0,51,0.00,,,0.00,782.000000,,2013-05-31 20:42:00,
2013-05-31 16:52:00,83.0,63.0,-100.00,SW,214,8.0,14.0,51,0.00,,,0.00,782.000000,,2013-05-31 20:52:00,
2013-05-31 17:01:00,83.0,63.0,-100.00,SW,214,8.0,14.0,51,0.00,,,0.00,782.000000,,2013-05-31 21:01:00,
2013-05-31 17:22:00,82.0,60.0,-100.00,SSW,208,6.0,13.0,48,0.00,,,0.00,748.000000,,2013-05-31 21:22:00,
2013-05-31 17:33:00,82.0,60.0,-100.00,SSW,208,6.0,13.0,48,0.00,,,0.00,748.000000,,2013-05-31 21:33:00,
2013-05-31 17:43:00,82.0,60.0,-100.00,SSW,208,6.0,13.0,48,0.00,,,0.00,748.000000,,2013-05-31 21:43:00,
2013-05-31 17:54:00,82.0,60.0,-100.00,SSW,208,6.0,13.0,48,0.00,,,0.00,748.000000,,2013-05-31 21:54:00,
2013-05-31 18:02:00,82.0,60.0,-100.00,SSW,208,6.0,13.0,48,0.00,,,0.00,748.000000,,2013-05-31 22:02:00,
2013-05-31 18:22:00,82.0,60.0,-100.00,SSW,204,7.0,13.0,47,0.00,,,0.00,502.000000,,2013-05-31 22:22:00,
2013-05-31 18:33:00,82.0,60.0,-100.00,SSW,204,7.0,13.0,47,0.00,,,0.00,502.000000,,2013-05-31 22:33:00,
2013-05-31 18:42:00,82.0,60.0,-100.00,SSW,204,7.0,13.0,47,0.00,,,0.00,502.000000,,2013-05-31 22:42:00,
2013-05-31 18:53:00,82.0,60.0,-100.00,SSW,204,7.0,13.0,47,0.00,,,0.00,502.000000,,2013-05-31 22:53:00,
2013-05-31 19:02:00,82.0,60.0,-100.00,SSW,204,7.0,13.0,47,0.00,,,0.00,502.000000,,2013-05-31 23:02:00,
2013-05-31 19:22:00,81.0,60.0,-100.00,SSW,209,7.0,13.0,49,0.00,,,0.00,363.000000,,2013-05-31 23:22:00,
2013-05-31 19:32:00,81.0,60.0,-100.00,SSW,209,7.0,13.0,49,0.00,,,0.00,363.000000,,2013-05-31 23:32:00,
2013-05-31 19:42:00,81.0,60.0,-100.00,SSW,209,7.0,13.0,49,0.00,,,0.00,363.000000,,2013-05-31 23:42:00,
2013-05-31 19:52:00,81.0,60.0,-100.00,SSW,209,7.0,13.0,49,0.00,,,0.00,363.000000,,2013-05-31 23:52:00,
2013-05-31 20:01:00,81.0,60.0,-100.00,SSW,209,7.0,13.0,49,0.00,,,0.00,363.000000,,2013-06-01 00:01:00,
2013-05-31 20:22:00,78.0,59.0,-100.00,SSW,201,4.0,8.0,53,0.00,,,0.00,145.000000,,2013-06-01 00:22:00,
2013-05-31 20:32:00,78.0,59.0,-100.00,SSW,201,4.0,8.0,53,0.00,,,0.00,145.000000,,2013-06-01 00:32:00,
2013-05-31 20:42:00,78.0,59.0,-100.00,SSW,201,4.0,8.0,53,0.00,,,0.00,145.000000,,2013-06-01 00:42:00,
2013-05-31 20:52:00,78.0,59.0,-100.00,SSW,201,4.0,8.0,53,0.00,,,0.00,145.000000,,2013-06-01 00:52:00,
2013-05-31 21:01:00,78.0,59.0,-100.00,SSW,201,4.0,8.0,53,0.00,,,0.00,145.000000,,2013-06-01 01:01:00,
2013-05-31 21:22:00,72.0,61.0,-100.00,North,353,1.0,6.0,68,0.00,,,0.00,7.000000,,2013-06-01 01:22:00,
2013-05-31 21:32:00,72.0,61.0,-100.00,North,353,1.0,6.0,68,0.00,,,0.00,7.000000,,2013-06-01 01:32:00,
2013-05-31 21:42:00,72.0,61.0,-100.00,North,353,1.0,6.0,68,0.00,,,0.00,7.000000,,2013-06-01 01:42:00,
2013-05-31 21:52:00,72.0,61.0,-100.00,North,353,1.0,6.0,68,0.00,,,0.00,7.000000,,2013-06-01 01:52:00,
2013-05-31 22:02:00,72.0,61.0,-100.00,North,353,1.0,6.0,68,0.00,,,0.00,7.000000,,2013-06-01 02:02:00,
2013-05-31 22:22:00,69.0,63.0,-100.00,NW,321,1.0,2.0,80,0.00,,,0.00,0.000000,,2013-06-01 02:22:00,
2013-05-31 22:32:00,69.0,63.0,-100.00,NW,321,1.0,2.0,80,0.00,,,0.00,0.000000,,2013-06-01 02:32:00,
2013-05-31 22:42:00,69.0,63.0,-100.00,NW,321,1.0,2.0,80,0.00,,,0.00,0.000000,,2013-06-01 02:42:00,
2013-05-31 22:52:00,69.0,63.0,-100.00,NW,321,1.0,2.0,80,0.00,,,0.00,0.000000,,2013-06-01 02:52:00,
2013-05-31 23:02:00,69.0,63.0,-100.00,NW,321,1.0,2.0,80,0.00,,,0.00,0.000000,,2013-06-01 03:02:00,
2013-05-31 23:22:00,67.0,62.0,-100.00,NNW,340,1.0,2.0,83,0.00,,,0.00,0.000000,,2013-06-01 03:22:00,
2013-05-31 23:33:00,67.0,62.0,-100.00,NNW,340,1.0,2.0,83,0.00,,,0.00,0.000000,,2013-06-01 03:33:00,
2013-05-31 23:43:00,67.0,62.0,-100.00,NNW,340,1.0,2.0,83,0.00,,,0.00,0.000000,,2013-06-01 03:43:00,
2013-05-31 23:53:00,67.0,62.0,-100.00,NNW,340,1.0,2.0,83,0.00,,,0.00,0.000000,,2013-06-01 03:53:00,